createdAt,value
2023-06-11T00:02:25.903Z,19.07
2023-06-11T00:04:53.510Z,19.04
2023-06-11T00:07:20.998Z,19.03
2023-06-11T00:09:48.316Z,19.03
2023-06-11T00:12:15.742Z,19.06
2023-06-11T00:14:43.123Z,19.04
2023-06-11T00:17:10.484Z,19.09
2023-06-11T00:19:37.825Z,19.03
2023-06-11T00:22:06.357Z,19.04
2023-06-11T00:24:33.751Z,19.07
2023-06-11T00:27:03.927Z,19.04
2023-06-11T00:29:31.380Z,19.06
2023-06-11T00:31:58.783Z,19.06
2023-06-11T00:34:26.464Z,19.07
2023-06-11T00:36:54.282Z,19.09
2023-06-11T00:39:21.744Z,19.07
2023-06-11T00:41:50.405Z,19.10
2023-06-11T00:44:23.011Z,19.06
2023-06-11T00:46:52.413Z,19.02
2023-06-11T00:49:21.091Z,19.06
2023-06-11T00:51:48.381Z,19.02
2023-06-11T00:54:17.674Z,19.03
2023-06-11T00:56:45.297Z,19.06
2023-06-11T00:59:13.353Z,19.09
2023-06-11T01:01:53.068Z,19.03
2023-06-11T01:04:24.739Z,19.03
2023-06-11T01:06:53.975Z,19.03
2023-06-11T01:09:22.188Z,18.99
2023-06-11T01:11:56.062Z,19.09
2023-06-11T01:14:24.812Z,19.02
2023-06-11T01:16:59.169Z,19.04
2023-06-11T01:19:39.145Z,19.03
2023-06-11T01:22:34.700Z,19.00
2023-06-11T01:25:26.501Z,19.00
2023-06-11T01:28:11.439Z,18.82
2023-06-11T01:30:40.809Z,18.77
2023-06-11T01:33:09.567Z,18.88
2023-06-11T01:35:44.939Z,18.77
2023-06-11T01:38:13.140Z,18.77
2023-06-11T01:40:48.955Z,18.71
2023-06-11T01:43:17.092Z,18.58
2023-06-11T01:45:44.720Z,18.58
2023-06-11T01:48:12.193Z,18.48
2023-06-11T01:50:41.346Z,18.42
2023-06-11T01:53:08.969Z,18.42
2023-06-11T01:55:37.839Z,18.38
2023-06-11T01:58:05.520Z,18.38
2023-06-11T02:00:32.882Z,18.35
2023-06-11T02:03:03.227Z,18.30
2023-06-11T02:05:30.727Z,18.18
2023-06-11T02:07:58.115Z,18.11
2023-06-11T02:10:25.678Z,18.03
2023-06-11T02:12:53.038Z,18.03
2023-06-11T02:15:20.694Z,17.93
2023-06-11T02:17:48.088Z,17.89
2023-06-11T02:20:16.647Z,17.86
2023-06-11T02:22:44.470Z,17.79
2023-06-11T02:25:12.094Z,17.73
2023-06-11T02:27:39.677Z,17.69
2023-06-11T02:30:07.657Z,17.66
2023-06-11T02:32:35.051Z,17.63
2023-06-11T02:35:02.494Z,17.57
2023-06-11T02:37:29.825Z,17.55
2023-06-11T02:39:57.211Z,17.50
2023-06-11T02:42:24.812Z,17.53
2023-06-11T02:44:52.377Z,17.45
2023-06-11T02:47:19.704Z,17.53
2023-06-11T02:49:47.217Z,17.50
2023-06-11T02:52:14.456Z,17.43
2023-06-11T02:54:41.822Z,17.46
2023-06-11T02:57:09.057Z,17.45
2023-06-11T02:59:36.481Z,17.47
2023-06-11T03:02:03.934Z,17.45
2023-06-11T03:04:31.334Z,17.43
2023-06-11T03:06:58.716Z,17.42
2023-06-11T03:09:26.322Z,17.42
2023-06-11T03:11:53.718Z,17.39
2023-06-11T03:14:22.347Z,17.34
2023-06-11T03:16:49.705Z,17.31
2023-06-11T03:19:18.721Z,17.25
2023-06-11T03:21:46.705Z,17.26
2023-06-11T03:24:15.062Z,17.26
2023-06-11T03:26:42.390Z,17.25
2023-06-11T03:29:10.523Z,17.28
2023-06-11T03:31:46.005Z,17.32
2023-06-11T03:34:13.492Z,17.29
2023-06-11T03:36:40.846Z,17.26
2023-06-11T03:39:12.895Z,17.22
2023-06-11T03:41:41.031Z,17.21
2023-06-11T03:44:08.990Z,17.24
2023-06-11T03:46:36.627Z,17.22
2023-06-11T03:49:04.050Z,17.26
2023-06-11T03:51:31.585Z,17.25
2023-06-11T03:53:58.875Z,17.28
2023-06-11T03:56:26.760Z,17.16
2023-06-11T03:58:54.127Z,17.24
2023-06-11T04:01:21.992Z,17.24
2023-06-11T04:03:49.609Z,17.25
2023-06-11T04:06:18.664Z,17.21
2023-06-11T04:08:46.049Z,17.16
2023-06-11T04:11:13.406Z,17.19
2023-06-11T04:13:41.802Z,17.19
2023-06-11T04:16:09.612Z,17.24
2023-06-11T04:18:37.278Z,17.21
2023-06-11T04:21:04.599Z,17.24
2023-06-11T04:23:33.749Z,17.24
2023-06-11T04:26:03.024Z,17.28
2023-06-11T04:28:30.906Z,17.21
2023-06-11T04:30:59.267Z,17.21
2023-06-11T04:33:37.657Z,17.18
2023-06-11T04:36:08.613Z,17.24
2023-06-11T04:38:39.126Z,17.18
2023-06-11T04:41:06.811Z,17.19
2023-06-11T04:43:35.250Z,17.12
2023-06-11T04:46:05.593Z,17.16
2023-06-11T04:48:34.174Z,17.11
2023-06-11T04:51:01.994Z,17.10
2023-06-11T04:53:38.571Z,17.11
2023-06-11T04:56:08.649Z,17.15
2023-06-11T04:58:38.802Z,17.11
2023-06-11T05:01:06.963Z,17.12
2023-06-11T05:03:38.339Z,17.08
2023-06-11T05:06:09.647Z,17.14
2023-06-11T05:08:40.107Z,17.14
2023-06-11T05:11:07.477Z,17.18
2023-06-11T05:13:35.691Z,17.22
2023-06-11T05:16:07.047Z,17.15
2023-06-11T05:18:35.237Z,17.16
2023-06-11T05:21:05.209Z,17.18
2023-06-11T05:23:34.453Z,17.21
2023-06-11T05:26:13.333Z,17.28
2023-06-11T05:28:44.866Z,17.29
2023-06-11T05:31:14.181Z,17.31
2023-06-11T05:33:45.383Z,17.32
2023-06-11T05:36:12.854Z,17.39
2023-06-11T05:38:40.934Z,17.45
2023-06-11T05:41:08.795Z,17.43
2023-06-11T05:43:36.876Z,17.45
2023-06-11T05:46:04.879Z,17.52
2023-06-11T05:48:33.082Z,17.62
2023-06-11T05:51:00.859Z,17.72
2023-06-11T05:53:29.035Z,17.65
2023-06-11T05:55:57.869Z,17.62
2023-06-11T05:58:25.752Z,17.61
2023-06-11T06:00:55.561Z,17.62
2023-06-11T06:03:23.477Z,17.56
2023-06-11T06:05:51.237Z,17.69
2023-06-11T06:08:18.723Z,17.65
2023-06-11T06:10:46.080Z,17.63
2023-06-11T06:13:13.587Z,17.65
2023-06-11T06:15:43.191Z,17.72
2023-06-11T06:18:11.788Z,17.87
2023-06-11T06:20:41.986Z,17.96
2023-06-11T06:23:09.859Z,17.98
2023-06-11T06:25:39.585Z,18.01
2023-06-11T06:28:10.599Z,18.05
2023-06-11T06:30:41.146Z,18.10
2023-06-11T06:33:09.904Z,18.01
2023-06-11T06:35:37.311Z,18.07
2023-06-11T06:38:06.327Z,17.90
2023-06-11T06:40:35.505Z,17.97
2023-06-11T06:43:02.910Z,17.91
2023-06-11T06:45:34.856Z,17.84
2023-06-11T06:48:10.232Z,17.90
2023-06-11T06:50:38.345Z,17.82
2023-06-11T06:53:05.724Z,17.67
2023-06-11T06:55:33.375Z,17.76
2023-06-11T06:58:05.372Z,17.86
2023-06-11T07:00:33.260Z,17.93
2023-06-11T07:03:00.716Z,18.04
2023-06-11T07:05:28.940Z,18.20
2023-06-11T07:07:56.375Z,18.34
2023-06-11T07:10:24.080Z,18.59
2023-06-11T07:12:53.130Z,18.90
2023-06-11T07:15:20.521Z,18.90
2023-06-11T07:17:48.293Z,18.75
2023-06-11T07:20:17.678Z,18.49
2023-06-11T07:22:45.466Z,18.48
2023-06-11T07:25:13.662Z,18.73
2023-06-11T07:27:41.096Z,18.82
2023-06-11T07:30:09.984Z,18.98
2023-06-11T07:32:38.273Z,20.43
2023-06-11T07:35:05.899Z,20.39
2023-06-11T07:37:33.272Z,20.12
2023-06-11T07:40:01.002Z,19.53
2023-06-11T07:42:28.279Z,19.11
2023-06-11T07:44:55.847Z,18.82
2023-06-11T07:47:23.133Z,18.63
2023-06-11T07:49:50.719Z,18.40
2023-06-11T07:52:18.035Z,18.13
2023-06-11T07:54:45.544Z,18.07
2023-06-11T07:57:14.178Z,17.89
2023-06-11T07:59:43.542Z,17.73
2023-06-11T08:02:11.677Z,17.67
2023-06-11T08:04:39.223Z,17.56
2023-06-11T08:07:06.487Z,17.43
2023-06-11T08:09:34.587Z,17.29
2023-06-11T08:12:02.510Z,17.25
2023-06-11T08:14:29.869Z,17.21
2023-06-11T08:16:57.372Z,17.11
2023-06-11T08:19:24.910Z,17.07
2023-06-11T08:21:52.187Z,17.05
2023-06-11T08:24:19.939Z,17.05
2023-06-11T08:26:47.315Z,17.18
2023-06-11T08:29:14.707Z,17.28
2023-06-11T08:31:42.323Z,17.39
2023-06-11T08:34:10.110Z,17.45
2023-06-11T08:36:38.157Z,17.59
2023-06-11T08:39:05.509Z,17.70
2023-06-11T08:41:33.011Z,17.80
2023-06-11T08:44:00.373Z,17.84
2023-06-11T08:46:27.653Z,18.10
2023-06-11T08:48:59.940Z,18.35
2023-06-11T08:51:30.593Z,18.48
2023-06-11T08:53:57.981Z,18.48
2023-06-11T08:56:25.708Z,18.56
2023-06-11T08:58:53.037Z,18.85
2023-06-11T09:01:24.794Z,19.06
2023-06-11T09:03:52.205Z,19.11
2023-06-11T09:06:19.804Z,19.40
2023-06-11T09:09:00.204Z,19.62
2023-06-11T09:11:37.564Z,19.91
2023-06-11T09:14:05.566Z,19.77
2023-06-11T09:16:59.286Z,20.05
2023-06-11T09:19:26.646Z,20.10
2023-06-11T09:21:57.569Z,20.16
2023-06-11T09:24:25.620Z,20.16
2023-06-11T09:26:57.646Z,20.16
2023-06-11T09:29:25.911Z,20.44
2023-06-11T09:32:19.537Z,20.37
2023-06-11T09:34:51.160Z,20.68
2023-06-11T09:37:18.436Z,21.14
2023-06-11T09:39:46.775Z,21.36
2023-06-11T09:42:24.416Z,21.42
2023-06-11T09:44:52.658Z,21.53
2023-06-11T09:47:19.961Z,21.82
2023-06-11T09:49:47.342Z,21.96
2023-06-11T09:52:14.721Z,22.03
2023-06-11T09:54:42.587Z,22.05
2023-06-11T09:57:09.834Z,22.13
2023-06-11T09:59:38.105Z,22.22
2023-06-11T10:02:05.806Z,22.44
2023-06-11T10:04:33.191Z,22.21
2023-06-11T10:07:00.722Z,22.25
2023-06-11T10:09:28.002Z,21.90
2023-06-11T10:11:55.260Z,22.24
2023-06-11T10:14:23.671Z,22.04
2023-06-11T10:16:51.452Z,22.47
2023-06-11T10:19:19.056Z,22.65
2023-06-11T10:21:51.618Z,22.63
2023-06-11T10:24:25.928Z,22.72
2023-06-11T10:27:10.118Z,22.75
2023-06-11T10:29:49.988Z,22.62
2023-06-11T10:32:21.227Z,23.03
2023-06-11T10:34:49.449Z,22.98
2023-06-11T10:37:16.877Z,22.81
2023-06-11T10:39:51.752Z,22.61
2023-06-11T10:42:34.813Z,23.00
2023-06-11T10:45:06.060Z,23.04
2023-06-11T10:47:51.079Z,23.51
2023-06-11T10:50:25.051Z,23.68
2023-06-11T10:52:53.304Z,23.61
2023-06-11T10:55:21.795Z,22.96
2023-06-11T10:57:55.722Z,23.24
2023-06-11T11:00:23.367Z,23.36
2023-06-11T11:02:52.360Z,22.89
2023-06-11T11:05:20.322Z,22.95
2023-06-11T11:07:48.452Z,23.40
2023-06-11T11:10:20.810Z,23.50
2023-06-11T11:12:48.593Z,23.17
2023-06-11T11:15:16.082Z,23.20
2023-06-11T11:17:44.175Z,23.28
2023-06-11T11:20:12.800Z,22.65
2023-06-11T11:22:40.124Z,22.96
2023-06-11T11:25:08.167Z,22.63
2023-06-11T11:27:36.390Z,22.89
2023-06-11T11:30:04.474Z,22.73
2023-06-11T11:32:33.589Z,23.04
2023-06-11T11:35:02.150Z,23.61
2023-06-11T11:37:32.432Z,23.75
2023-06-11T11:40:08.219Z,23.91
2023-06-11T11:42:52.001Z,24.22
2023-06-11T11:45:20.437Z,24.36
2023-06-11T11:47:52.399Z,24.50
2023-06-11T11:50:31.630Z,24.29
2023-06-11T11:53:07.027Z,24.30
2023-06-11T11:55:38.108Z,24.25
2023-06-11T11:58:16.260Z,23.91
2023-06-11T12:00:59.175Z,23.60
2023-06-11T12:03:27.659Z,23.72
2023-06-11T12:06:02.598Z,23.57
2023-06-11T12:08:31.082Z,23.85
2023-06-11T12:10:58.834Z,23.77
2023-06-11T12:13:26.200Z,23.78
2023-06-11T12:15:53.706Z,24.22
2023-06-11T12:18:21.554Z,24.50
2023-06-11T12:20:49.115Z,24.64
2023-06-11T12:23:16.461Z,24.59
2023-06-11T12:25:43.910Z,24.53
2023-06-11T12:28:11.340Z,24.04
2023-06-11T12:30:38.627Z,24.39
2023-06-11T12:33:05.985Z,24.56
2023-06-11T12:35:33.469Z,24.50
2023-06-11T12:38:00.921Z,24.47
2023-06-11T12:40:29.360Z,24.50
2023-06-11T12:43:00.863Z,24.71
2023-06-11T12:45:29.197Z,24.57
2023-06-11T12:47:56.678Z,24.64
2023-06-11T12:50:28.118Z,24.52
2023-06-11T12:52:56.390Z,24.53
2023-06-11T12:55:25.596Z,24.90
2023-06-11T12:57:53.235Z,25.19
2023-06-11T13:00:20.491Z,25.04
2023-06-11T13:02:47.912Z,25.25
2023-06-11T13:05:15.210Z,25.14
2023-06-11T13:07:42.648Z,24.73
2023-06-11T13:10:10.460Z,24.68
2023-06-11T13:12:38.147Z,24.77
2023-06-11T13:15:06.060Z,24.76
2023-06-11T13:17:33.380Z,24.80
2023-06-11T13:20:00.890Z,24.57
2023-06-11T13:22:28.328Z,24.35
2023-06-11T13:24:55.809Z,24.60
2023-06-11T13:27:23.170Z,24.80
2023-06-11T13:29:50.677Z,24.86
2023-06-11T13:32:19.866Z,25.07
2023-06-11T13:34:47.484Z,25.05
2023-06-11T13:37:15.085Z,24.86
2023-06-11T13:39:42.538Z,24.71
2023-06-11T13:42:11.559Z,25.18
2023-06-11T13:44:38.872Z,24.91
2023-06-11T13:47:06.723Z,24.97
2023-06-11T13:49:34.129Z,24.71
2023-06-11T13:52:02.096Z,24.83
2023-06-11T13:54:29.617Z,25.11
2023-06-11T13:56:57.212Z,24.90
2023-06-11T13:59:24.484Z,24.78
2023-06-11T14:01:53.078Z,24.78
2023-06-11T14:04:20.344Z,24.97
2023-06-11T14:06:47.698Z,25.10
2023-06-11T14:09:15.395Z,24.90
2023-06-11T14:11:42.716Z,24.71
2023-06-11T14:14:10.749Z,24.83
2023-06-11T14:16:38.072Z,25.04
2023-06-11T14:19:05.392Z,24.81
2023-06-11T14:21:32.816Z,24.43
2023-06-11T14:24:00.232Z,24.53
2023-06-11T14:26:27.606Z,24.57
2023-06-11T14:28:54.910Z,24.53
2023-06-11T14:31:22.543Z,24.52
2023-06-11T14:33:49.937Z,24.28
2023-06-11T14:36:17.225Z,24.43
2023-06-11T14:38:44.472Z,24.28
2023-06-11T14:41:11.902Z,24.36
2023-06-11T14:43:39.162Z,24.52
2023-06-11T14:46:06.552Z,24.40
2023-06-11T14:48:33.851Z,23.98
2023-06-11T14:51:07.321Z,23.95
2023-06-11T14:53:34.669Z,24.20
2023-06-11T14:56:01.927Z,24.13
2023-06-11T14:58:29.273Z,24.26
2023-06-11T15:00:56.490Z,24.30
2023-06-11T15:03:23.954Z,24.13
2023-06-11T15:05:51.841Z,24.23
2023-06-11T15:08:19.209Z,23.85
2023-06-11T15:10:46.448Z,24.22
2023-06-11T15:13:14.312Z,24.32
2023-06-11T15:15:41.522Z,23.85
2023-06-11T15:18:09.138Z,23.65
2023-06-11T15:20:36.479Z,23.31
2023-06-11T15:23:03.956Z,23.27
2023-06-11T15:25:31.237Z,23.39
2023-06-11T15:27:58.629Z,23.50
2023-06-11T15:30:26.962Z,23.43
2023-06-11T15:32:56.656Z,23.37
2023-06-11T15:35:26.801Z,23.23
2023-06-11T15:37:54.083Z,23.12
2023-06-11T15:40:23.305Z,23.16
2023-06-11T15:42:50.608Z,23.23
2023-06-11T15:45:18.030Z,23.21
2023-06-11T15:47:45.511Z,23.33
2023-06-11T15:50:13.472Z,23.41
2023-06-11T15:52:41.090Z,23.68
2023-06-11T15:55:08.932Z,23.74
2023-06-11T15:57:37.470Z,23.60
2023-06-11T16:00:05.441Z,23.64
2023-06-11T16:02:32.620Z,23.39
2023-06-11T16:05:02.027Z,23.36
2023-06-11T16:07:29.395Z,23.41
2023-06-11T16:09:56.919Z,23.37
2023-06-11T16:12:24.238Z,23.37
2023-06-11T16:14:51.546Z,23.34
2023-06-11T16:17:20.667Z,23.31
2023-06-11T16:19:48.138Z,23.31
2023-06-11T16:22:15.570Z,23.06
2023-06-11T16:24:42.922Z,23.04
2023-06-11T16:27:10.262Z,22.86
2023-06-11T16:29:37.706Z,22.75
2023-06-11T16:32:05.615Z,22.75
2023-06-11T16:34:33.062Z,22.82
2023-06-11T16:37:00.345Z,22.85
2023-06-11T16:39:28.791Z,22.79
2023-06-11T16:41:56.745Z,22.82
2023-06-11T16:44:24.301Z,22.83
2023-06-11T16:46:52.377Z,22.69
2023-06-11T16:49:19.955Z,22.72
2023-06-11T16:51:47.227Z,22.68
2023-06-11T16:54:18.251Z,22.59
2023-06-11T16:56:46.270Z,22.55
2023-06-11T16:59:13.566Z,22.47
2023-06-11T17:01:41.008Z,22.42
2023-06-11T17:04:08.397Z,22.31
2023-06-11T17:06:35.931Z,22.30
2023-06-11T17:09:03.197Z,22.31
2023-06-11T17:11:30.609Z,22.17
2023-06-11T17:13:57.830Z,22.11
2023-06-11T17:16:25.278Z,22.05
2023-06-11T17:18:52.600Z,22.04
2023-06-11T17:21:20.169Z,22.03
2023-06-11T17:23:47.524Z,21.90
2023-06-11T17:26:17.330Z,21.84
2023-06-11T17:28:45.142Z,21.87
2023-06-11T17:31:14.141Z,21.79
2023-06-11T17:33:41.668Z,21.77
2023-06-11T17:36:09.587Z,21.70
2023-06-11T17:38:36.897Z,21.66
2023-06-11T17:41:04.174Z,21.73
2023-06-11T17:43:31.593Z,21.75
2023-06-11T17:45:58.836Z,21.69
2023-06-11T17:48:26.539Z,21.77
2023-06-11T17:50:53.830Z,21.76
2023-06-11T17:53:21.573Z,21.79
2023-06-11T17:55:50.632Z,21.73
2023-06-11T17:58:18.503Z,21.63
2023-06-11T18:00:45.976Z,21.50
2023-06-11T18:03:13.460Z,21.26
2023-06-11T18:05:40.974Z,21.01
2023-06-11T18:08:08.697Z,20.92
2023-06-11T18:10:36.028Z,20.67
2023-06-11T18:13:05.102Z,20.67
2023-06-11T18:15:35.035Z,20.61
2023-06-11T18:18:04.907Z,20.53
2023-06-11T18:20:32.932Z,20.47
2023-06-11T18:23:00.557Z,20.46
2023-06-11T18:25:28.271Z,20.25
2023-06-11T18:27:55.691Z,20.29
2023-06-11T18:30:23.046Z,20.32
2023-06-11T18:32:50.619Z,20.29
2023-06-11T18:35:21.046Z,20.28
2023-06-11T18:37:48.526Z,20.26
2023-06-11T18:40:16.526Z,20.16
2023-06-11T18:42:44.075Z,20.08
2023-06-11T18:45:11.498Z,20.00
2023-06-11T18:47:40.502Z,20.00
2023-06-11T18:50:10.980Z,20.05
2023-06-11T18:52:38.958Z,19.98
2023-06-11T18:55:06.654Z,19.92
2023-06-11T18:57:34.048Z,19.96
2023-06-11T19:00:01.881Z,20.00
2023-06-11T19:02:29.475Z,20.05
2023-06-11T19:04:57.166Z,20.06
2023-06-11T19:07:24.675Z,20.09
2023-06-11T19:09:52.633Z,20.04
2023-06-11T19:12:20.002Z,19.99
2023-06-11T19:14:47.660Z,20.10
2023-06-11T19:17:15.195Z,20.05
2023-06-11T19:19:42.564Z,20.05
2023-06-11T19:22:10.167Z,20.06
2023-06-11T19:24:37.504Z,20.04
2023-06-11T19:27:05.283Z,19.91
2023-06-11T19:29:32.944Z,19.77
2023-06-11T19:32:00.419Z,19.81
2023-06-11T19:34:27.663Z,19.74
2023-06-11T19:36:55.159Z,19.75
2023-06-11T19:39:22.476Z,19.81
2023-06-11T19:41:49.823Z,19.82
2023-06-11T19:44:17.197Z,19.77
2023-06-11T19:46:45.014Z,19.83
2023-06-11T19:49:12.680Z,19.78
2023-06-11T19:51:40.652Z,19.71
2023-06-11T19:54:07.936Z,19.79
2023-06-11T19:56:35.439Z,19.64
2023-06-11T19:59:02.752Z,19.68
2023-06-11T20:01:30.094Z,19.62
2023-06-11T20:03:57.455Z,19.58
2023-06-11T20:06:24.815Z,19.53
2023-06-11T20:08:54.019Z,19.48
2023-06-11T20:11:22.268Z,19.43
2023-06-11T20:13:49.572Z,19.41
2023-06-11T20:16:16.934Z,19.50
2023-06-11T20:18:44.239Z,19.47
2023-06-11T20:21:11.640Z,19.44
2023-06-11T20:23:38.904Z,19.40
2023-06-11T20:26:06.524Z,19.44
2023-06-11T20:28:33.795Z,19.38
2023-06-11T20:31:04.617Z,19.37
2023-06-11T20:33:32.914Z,19.31
2023-06-11T20:36:00.193Z,19.30
2023-06-11T20:38:27.741Z,19.33
2023-06-11T20:40:55.043Z,19.38
2023-06-11T20:43:22.377Z,19.40
2023-06-11T20:45:57.828Z,19.43
2023-06-11T20:48:25.960Z,19.41
2023-06-11T20:50:53.502Z,19.51
2023-06-11T20:53:33.228Z,19.50
2023-06-11T20:56:02.042Z,19.35
2023-06-11T20:58:29.340Z,19.41
2023-06-11T21:00:56.658Z,19.33
2023-06-11T21:03:24.050Z,19.34
2023-06-11T21:05:51.696Z,19.33
2023-06-11T21:08:19.319Z,19.30
2023-06-11T21:10:47.008Z,19.27
2023-06-11T21:13:15.140Z,19.33
2023-06-11T21:15:42.556Z,19.30
2023-06-11T21:18:09.935Z,19.19
2023-06-11T21:20:41.231Z,19.19
2023-06-11T21:23:08.631Z,19.13
2023-06-11T21:25:35.971Z,19.06
2023-06-11T21:28:03.329Z,19.13
2023-06-11T21:30:30.815Z,19.17
2023-06-11T21:32:58.224Z,19.26
2023-06-11T21:35:25.689Z,19.20
2023-06-11T21:37:53.090Z,19.19
2023-06-11T21:40:20.443Z,19.11
2023-06-11T21:42:47.791Z,19.16
2023-06-11T21:45:15.019Z,19.06
2023-06-11T21:47:42.373Z,19.04
2023-06-11T21:50:10.522Z,19.13
2023-06-11T21:52:39.053Z,19.07
2023-06-11T21:55:08.341Z,18.86
2023-06-11T21:57:35.970Z,19.00
2023-06-11T22:00:12.672Z,18.96
2023-06-11T22:02:42.004Z,18.90
2023-06-11T22:05:10.092Z,18.86
2023-06-11T22:07:37.650Z,18.72
2023-06-11T22:10:05.463Z,18.72
2023-06-11T22:12:42.729Z,18.76
2023-06-11T22:15:11.437Z,18.88
2023-06-11T22:17:40.563Z,18.95
2023-06-11T22:20:10.239Z,18.92
2023-06-11T22:22:39.212Z,18.90
2023-06-11T22:25:09.252Z,18.89
2023-06-11T22:27:37.383Z,18.86
2023-06-11T22:30:05.726Z,18.79
2023-06-11T22:32:33.081Z,18.69
2023-06-11T22:35:00.399Z,18.62
2023-06-11T22:37:27.762Z,18.72
2023-06-11T22:39:55.404Z,18.75
2023-06-11T22:42:22.668Z,18.59
2023-06-11T22:44:49.909Z,18.62
2023-06-11T22:47:17.548Z,18.61
2023-06-11T22:49:44.856Z,18.63
2023-06-11T22:52:12.780Z,18.61
2023-06-11T22:54:40.175Z,18.56
2023-06-11T22:57:07.722Z,18.44
2023-06-11T22:59:35.134Z,18.32
2023-06-11T23:02:02.460Z,18.41
2023-06-11T23:04:29.819Z,18.42
2023-06-11T23:06:57.235Z,18.38
2023-06-11T23:09:24.521Z,18.38
2023-06-11T23:11:51.912Z,18.40
2023-06-11T23:14:19.219Z,18.37
2023-06-11T23:16:49.652Z,18.32
2023-06-11T23:19:26.547Z,18.30
2023-06-11T23:21:58.177Z,18.28
2023-06-11T23:24:28.967Z,18.34
2023-06-11T23:27:02.524Z,18.30
2023-06-11T23:29:30.530Z,18.31
2023-06-11T23:31:57.972Z,18.31
2023-06-11T23:34:25.373Z,18.32
2023-06-11T23:36:53.632Z,18.28
2023-06-11T23:39:21.217Z,18.35
2023-06-11T23:41:48.561Z,18.35
2023-06-11T23:44:16.003Z,18.34
2023-06-11T23:46:44.563Z,18.37
2023-06-11T23:49:11.965Z,18.37
2023-06-11T23:51:41.785Z,18.27
2023-06-11T23:54:09.137Z,18.27
2023-06-11T23:56:36.454Z,18.32
2023-06-11T23:59:03.769Z,18.45
